Time;durP1;ratioP1;P1;durP2;ratioP2;P2;SDS_P1;SDS_P2;PMS_P1;PMS_P2;Temp;Humidity;BMP_temperature;BMP_pressure;BME280_temperature;BME280_humidity;BME280_pressure;Samples;Min_cycle;Max_cycle;Signal;HPM_P1;HPM_P2
2023/12/14 00:01:31;;;;;;;4.93;3.33;;;7.50;99.00;;;9.29;65.90;96551.00;5032572;28;20501;-51
2023/12/14 00:03:59;;;;;;;4.73;2.53;;;7.60;99.40;;;9.31;66.20;96555.13;5032285;28;20042;-51
2023/12/14 00:06:26;;;;;;;5.10;2.77;;;7.60;99.70;;;9.36;66.50;96558.06;5032141;28;20041;-53
2023/12/14 00:08:54;;;;;;;6.93;3.90;;;7.70;99.50;;;9.41;65.99;96554.88;5032451;28;20037;-54
2023/12/14 00:11:22;;;;;;;6.47;2.80;;;7.70;98.90;;;9.43;66.07;96566.16;5032004;28;20041;-54
2023/12/14 00:13:49;;;;;;;4.47;2.77;;;7.70;99.10;;;9.43;66.32;96566.97;5032409;28;20096;-52
2023/12/14 00:16:17;;;;;;;4.07;2.40;;;7.70;99.20;;;9.45;66.28;96566.78;5031746;28;20053;-54
2023/12/14 00:18:45;;;;;;;3.97;2.80;;;7.70;99.00;;;9.46;66.15;96571.94;5030811;28;20045;-52
2023/12/14 00:21:12;;;;;;;4.60;2.50;;;7.70;99.10;;;9.46;66.10;96571.94;5031449;28;20039;-52
2023/12/14 00:23:40;;;;;;;3.87;2.40;;;7.70;98.90;;;9.46;66.03;96574.59;5031596;28;20424;-54
2023/12/14 00:26:08;;;;;;;8.80;2.93;;;7.60;98.70;;;9.45;66.06;96580.06;5031594;28;20048;-51
2023/12/14 00:28:35;;;;;;;3.60;2.50;;;7.60;99.20;;;9.45;65.97;96585.38;5031861;28;20033;-54
2023/12/14 00:31:03;;;;;;;4.07;2.90;;;7.60;99.40;;;9.45;66.17;96585.38;5031637;28;20061;-52
2023/12/14 00:33:31;;;;;;;3.57;2.13;;;7.60;99.90;;;9.45;66.23;96591.50;5030260;28;20041;-54
2023/12/14 00:35:59;;;;;;;2.93;2.43;;;7.60;99.20;;;9.44;66.24;96587.22;5031552;28;20044;-52
2023/12/14 00:38:26;;;;;;;2.10;1.87;;;7.60;98.90;;;9.42;66.24;96591.88;5031346;28;20394;-54
2023/12/14 00:40:54;;;;;;;3.63;2.00;;;7.50;98.70;;;9.40;66.11;96595.72;5031083;28;20037;-50
2023/12/14 00:43:22;;;;;;;3.20;1.90;;;7.50;99.00;;;9.37;65.79;96596.91;5031468;28;20409;-53
2023/12/14 00:45:49;;;;;;;3.37;2.00;;;7.40;99.10;;;9.34;66.07;96601.75;5030040;28;20496;-52
2023/12/14 00:48:17;;;;;;;4.53;1.70;;;7.40;99.50;;;9.33;65.92;96606.25;5031022;28;20034;-54
2023/12/14 00:50:44;;;;;;;3.63;2.17;;;7.40;99.70;;;9.34;66.02;96604.41;5031539;28;20044;-51
2023/12/14 00:53:12;;;;;;;5.70;2.13;;;7.40;98.90;;;9.30;66.04;96606.59;5031223;28;20088;-52
2023/12/14 00:55:40;;;;;;;2.30;1.50;;;7.40;98.90;;;9.31;66.10;96605.59;5031325;28;20501;-53
2023/12/14 00:58:07;;;;;;;3.10;1.70;;;7.40;99.70;;;9.34;65.79;96618.50;5029549;28;20049;-54
2023/12/14 01:00:35;;;;;;;5.27;1.60;;;7.50;98.70;;;9.35;66.03;96611.38;5031193;28;20041;-50
2023/12/14 01:03:03;;;;;;;1.77;1.50;;;7.50;98.40;;;9.36;65.86;96620.97;5031257;28;20069;-50
2023/12/14 01:05:30;;;;;;;2.63;1.33;;;7.50;97.60;;;9.35;65.98;96622.00;5031381;28;20052;-52
2023/12/14 01:07:58;;;;;;;3.17;1.60;;;7.50;97.70;;;9.35;65.55;96627.31;5029608;28;20037;-53
2023/12/14 01:10:26;;;;;;;3.10;1.43;;;7.50;97.30;;;9.33;65.41;96624.84;5031295;28;20485;-50
2023/12/14 01:12:53;;;;;;;1.97;1.30;;;7.40;96.90;;;9.31;65.51;96637.47;5031003;28;20033;-52
2023/12/14 01:15:21;;;;;;;2.70;1.83;;;7.40;97.20;;;9.31;65.58;96637.47;5031054;28;20053;-54
2023/12/14 01:17:48;;;;;;;1.37;1.27;;;7.50;97.20;;;9.30;65.78;96635.81;5030487;28;20052;-50
2023/12/14 01:20:16;;;;;;;2.90;1.50;;;7.40;96.30;;;9.27;65.62;96649.47;5023040;28;20045;-53
2023/12/14 01:22:44;;;;;;;3.43;1.80;;;7.40;96.60;;;9.27;65.23;96655.59;5030763;28;20548;-54
2023/12/14 01:25:12;;;;;;;2.57;1.60;;;7.40;96.20;;;9.28;65.29;96659.06;5030942;28;20076;-55
2023/12/14 01:27:40;;;;;;;2.20;1.30;;;7.40;96.70;;;9.30;65.28;96669.50;5029302;28;20052;-52
2023/12/14 01:30:08;;;;;;;1.23;1.13;;;7.40;96.40;;;9.27;65.24;96666.22;5029592;28;20052;-53
2023/12/14 01:32:36;;;;;;;4.40;1.67;;;7.40;96.40;;;9.30;65.44;96674.81;5030887;28;20493;-52
2023/12/14 01:35:04;;;;;;;4.13;1.60;;;7.50;96.40;;;9.32;65.59;96681.59;5033546;28;20424;-50
2023/12/14 01:37:32;;;;;;;2.33;1.30;;;7.50;96.40;;;9.32;65.70;96676.28;5032547;28;20056;-52
2023/12/14 01:39:59;;;;;;;3.37;1.40;;;7.50;96.70;;;9.33;65.29;96685.94;5034921;28;20048;-51
2023/12/14 01:42:27;;;;;;;4.67;1.63;;;7.50;96.30;;;9.33;65.12;96685.09;5034569;28;20046;-52
2023/12/14 01:44:55;;;;;;;6.70;1.60;;;7.50;95.90;;;9.31;65.38;96690.59;5033147;28;20497;-52
2023/12/14 01:47:22;;;;;;;2.40;1.30;;;7.40;95.80;;;9.27;65.27;96692.78;5034624;28;20037;-52
2023/12/14 01:49:50;;;;;;;2.17;1.30;;;7.40;95.30;;;9.26;65.21;96699.06;5034712;28;20104;-50
2023/12/14 01:52:18;;;;;;;2.23;1.57;;;7.40;96.00;;;9.27;64.98;96699.91;5033381;28;20421;-52
2023/12/14 01:54:45;;;;;;;2.60;1.60;;;7.40;95.80;;;9.26;65.13;96698.25;5034684;28;20045;-52
2023/12/14 01:57:13;;;;;;;2.80;1.60;;;7.40;95.40;;;9.20;64.78;96699.78;5034294;28;20045;-51
2023/12/14 01:59:41;;;;;;;2.90;1.50;;;7.40;95.00;;;9.14;65.11;96708.44;5016706;28;20049;-53
2023/12/14 02:02:08;;;;;;;1.97;1.50;;;7.30;96.60;;;9.09;65.00;96713.44;5034289;28;20050;-53
2023/12/14 02:04:37;;;;;;;4.03;1.97;;;7.20;96.20;;;9.09;65.24;96715.28;5033067;28;20398;-51
2023/12/14 02:07:05;;;;;;;3.37;1.83;;;7.20;97.20;;;9.07;64.91;96713.66;5033935;28;20042;-52
2023/12/14 02:09:35;;;;;;;3.17;1.70;;;7.20;96.60;;;9.07;65.25;96721.59;5034117;28;20042;-54
2023/12/14 02:12:03;;;;;;;3.73;1.63;;;7.20;96.80;;;9.08;65.01;96714.47;5034151;28;20045;-54
2023/12/14 02:14:31;;;;;;;2.53;1.70;;;7.30;96.60;;;9.05;64.89;96722.75;5034275;28;20041;-53
2023/12/14 02:16:58;;;;;;;2.97;1.90;;;7.20;96.20;;;9.00;64.94;96725.13;5033775;28;20101;-52
2023/12/14 02:19:26;;;;;;;3.97;1.63;;;7.10;96.40;;;8.95;65.17;96719.50;5034295;28;20501;-50
2023/12/14 02:21:54;;;;;;;2.90;1.47;;;7.00;96.80;;;8.91;65.30;96726.97;5034585;28;20049;-51
2023/12/14 02:24:21;;;;;;;3.07;1.40;;;7.00;97.60;;;8.89;65.14;96726.34;5034180;28;20516;-51
2023/12/14 02:26:49;;;;;;;2.57;1.37;;;7.00;97.30;;;8.83;65.06;96729.69;5032431;28;20048;-52
2023/12/14 02:29:30;;;;;;;3.47;2.00;;;6.90;98.00;;;8.80;65.13;96732.66;5027149;28;20068;-51
2023/12/14 02:31:58;;;;;;;2.77;2.07;;;6.90;98.40;;;8.78;65.51;96740.81;5033567;28;20045;-50
2023/12/14 02:34:26;;;;;;;2.60;2.13;;;6.90;98.80;;;8.81;65.50;96747.59;5033819;28;20046;-50
2023/12/14 02:36:54;;;;;;;4.03;2.80;;;7.00;98.50;;;8.82;65.35;96744.78;5033787;28;20527;-53
2023/12/14 02:39:21;;;;;;;15.63;5.33;;;7.00;97.90;;;8.85;65.71;96754.22;5032534;28;20053;-49
2023/12/14 02:41:49;;;;;;;10.60;5.37;;;7.00;98.00;;;8.83;65.47;96750.91;5032839;28;20041;-50
2023/12/14 02:44:16;;;;;;;9.73;3.10;;;7.00;98.70;;;8.82;65.35;96755.41;5032403;28;20440;-53
2023/12/14 02:46:44;;;;;;;3.90;2.53;;;7.00;99.10;;;8.86;65.78;96754.06;5032068;28;20072;-52
2023/12/14 02:49:12;;;;;;;4.93;2.87;;;7.00;99.30;;;8.91;65.50;96758.84;5033598;28;20041;-52
2023/12/14 02:51:39;;;;;;;4.43;3.03;;;7.10;99.30;;;8.97;65.97;96765.28;5033556;28;20048;-53
2023/12/14 02:54:07;;;;;;;5.20;2.77;;;7.20;99.00;;;8.98;65.82;96766.97;5033365;28;20049;-53
2023/12/14 02:56:35;;;;;;;31.93;3.83;;;7.20;98.70;;;8.98;66.20;96765.13;5033214;28;20045;-54
2023/12/14 02:59:03;;;;;;;5.07;2.93;;;7.30;99.30;;;9.02;66.05;96768.25;5033298;28;20049;-52
2023/12/14 03:01:30;;;;;;;5.20;2.97;;;7.30;98.40;;;9.03;65.84;96772.56;5033907;28;20501;-50
2023/12/14 03:03:58;;;;;;;4.03;2.20;;;7.20;98.30;;;9.03;66.09;96778.72;5034109;28;20041;-53
2023/12/14 03:06:26;;;;;;;6.00;3.00;;;7.20;98.70;;;9.03;65.96;96772.56;5024857;28;20493;-53
2023/12/14 03:08:53;;;;;;;4.50;2.87;;;7.20;98.50;;;9.04;66.19;96779.53;5033330;28;20386;-55
2023/12/14 03:11:24;;;;;;;3.17;2.23;;;7.10;99.20;;;9.06;65.98;96786.31;5033066;28;20042;-53
2023/12/14 03:13:52;;;;;;;4.27;2.97;;;7.20;99.70;;;9.09;65.87;96782.47;5033041;28;20037;-52
2023/12/14 03:16:20;;;;;;;3.50;2.50;;;7.30;99.30;;;9.09;66.14;96793.09;5032773;28;20045;-52
2023/12/14 03:18:52;;;;;;;4.93;3.00;;;7.30;99.90;;;9.13;66.06;96790.94;5031933;28;20138;-53
2023/12/14 03:21:20;;;;;;;4.03;2.73;;;7.30;99.10;;;9.14;65.80;96796.06;5031847;28;20061;-51
2023/12/14 03:23:48;;;;;;;4.80;2.60;;;7.30;99.70;;;9.16;66.05;96804.69;5032998;28;20049;-52
2023/12/14 03:26:16;;;;;;;5.17;3.20;;;7.40;99.70;;;9.18;66.30;96799.22;5032559;28;20048;-53
2023/12/14 03:28:43;;;;;;;3.97;2.73;;;7.30;99.50;;;9.19;66.04;96806.16;5033051;28;20492;-54
2023/12/14 03:31:12;;;;;;;5.67;3.10;;;7.40;99.90;;;9.20;66.13;96815.81;5032747;28;20049;-53
2023/12/14 03:33:42;;;;;;;4.23;2.80;;;7.40;99.70;;;9.20;66.10;96813.16;5031612;28;20045;-51
2023/12/14 03:36:10;;;;;;;5.57;2.70;;;7.40;99.90;;;9.21;66.50;96820.13;5032470;28;20497;-52
2023/12/14 03:38:37;;;;;;;4.70;3.47;;;7.40;99.80;;;9.21;66.32;96823.59;5032730;28;20045;-50
2023/12/14 03:41:05;;;;;;;6.23;3.87;;;7.40;99.90;;;9.22;66.21;96827.91;5032639;28;20045;-53
2023/12/14 03:43:33;;;;;;;5.03;3.17;;;7.40;99.90;;;9.23;66.20;96834.88;5030751;28;20045;-51
2023/12/14 03:46:00;;;;;;;8.00;3.87;;;7.40;99.90;;;9.28;66.48;96837.00;5032275;28;20516;-50
2023/12/14 03:48:28;;;;;;;6.13;4.20;;;7.40;99.90;;;9.27;66.28;96836.19;5032381;28;20520;-51
2023/12/14 03:50:56;;;;;;;5.67;3.83;;;7.40;99.80;;;9.30;66.49;96839.50;5032485;28;20033;-53
2023/12/14 03:53:23;;;;;;;5.63;3.67;;;7.50;99.80;;;9.28;66.10;96842.31;5032228;28;20046;-51
2023/12/14 03:55:51;;;;;;;7.77;4.30;;;7.40;99.70;;;9.29;66.29;96845.84;5031803;28;20052;-54
2023/12/14 03:58:18;;;;;;;6.33;3.73;;;7.40;99.90;;;9.31;66.25;96849.13;5031952;28;20045;-52
2023/12/14 04:00:46;;;;;;;7.10;4.23;;;7.40;99.90;;;9.34;66.21;96848.78;5015208;28;20535;-50
2023/12/14 04:03:14;;;;;;;6.10;3.80;;;7.50;99.90;;;9.30;65.99;96852.78;5032186;28;20057;-52
2023/12/14 04:05:43;;;;;;;4.97;3.40;;;7.40;99.50;;;9.30;66.31;96863.41;5031991;28;20037;-53
2023/12/14 04:08:11;;;;;;;6.67;4.10;;;7.50;99.90;;;9.32;66.14;96861.41;5031863;28;20045;-53
2023/12/14 04:10:38;;;;;;;6.03;4.07;;;7.50;99.90;;;9.33;66.52;96868.38;5030856;28;20052;-53
2023/12/14 04:13:06;;;;;;;8.13;4.50;;;7.50;99.70;;;9.34;66.08;96875.34;5032154;28;20353;-54
2023/12/14 04:15:34;;;;;;;5.60;3.80;;;7.50;99.20;;;9.31;66.37;96881.00;5031665;28;20034;-52
2023/12/14 04:18:02;;;;;;;7.27;4.53;;;7.50;99.90;;;9.30;66.11;96882.81;5030334;28;20045;-53
2023/12/14 04:20:29;;;;;;;6.27;4.60;;;7.50;99.50;;;9.31;66.37;96884.50;5030887;28;20682;-53
2023/12/14 04:22:57;;;;;;;5.87;3.57;;;7.50;99.90;;;9.34;66.21;96892.09;5031193;28;20413;-52
2023/12/14 04:25:25;;;;;;;6.10;4.10;;;7.60;99.50;;;9.35;66.42;96892.94;5031847;28;20068;-52
2023/12/14 04:27:52;;;;;;;5.83;3.87;;;7.60;99.50;;;9.34;66.43;96892.09;5031541;28;20399;-54
2023/12/14 04:30:20;;;;;;;5.90;3.80;;;7.60;98.80;;;9.35;66.46;96901.75;5031483;28;20421;-50
2023/12/14 04:32:47;;;;;;;5.30;3.70;;;7.60;99.40;;;9.37;66.16;96905.06;5031792;28;20044;-52
2023/12/14 04:35:15;;;;;;;6.80;4.27;;;7.70;99.20;;;9.38;66.33;96901.41;5031698;28;20037;-52
2023/12/14 04:37:43;;;;;;;6.80;4.67;;;7.70;98.20;;;9.37;66.47;96909.53;5029894;28;20053;-54
2023/12/14 04:40:11;;;;;;;9.57;4.20;;;7.70;98.70;;;9.34;66.51;96913.34;5030610;28;20054;-53
2023/12/14 04:42:39;;;;;;;6.70;4.00;;;7.60;98.70;;;9.31;66.21;96916.38;5029890;28;20494;-51
2023/12/14 04:45:09;;;;;;;5.27;3.80;;;7.50;99.30;;;9.31;66.49;96921.69;5031435;28;20514;-52
2023/12/14 04:47:36;;;;;;;6.97;4.33;;;7.60;99.80;;;9.30;66.16;96927.16;5023322;28;20038;-51
2023/12/14 04:50:05;;;;;;;6.90;4.27;;;7.50;99.30;;;9.29;66.26;96925.50;5031285;28;20045;-53
2023/12/14 04:52:32;;;;;;;9.87;4.73;;;7.60;99.80;;;9.30;66.32;96933.28;5031302;28;20047;-51
2023/12/14 04:55:00;;;;;;;6.00;4.53;;;7.60;98.80;;;9.30;66.66;96932.47;5031373;28;20417;-53
2023/12/14 04:57:28;;;;;;;7.10;5.03;;;7.50;99.90;;;9.33;66.50;96934.78;5030858;28;20060;-52
2023/12/14 04:59:56;;;;;;;7.27;4.83;;;7.60;99.90;;;9.32;66.39;96943.75;5031239;28;20041;-53
2023/12/14 05:02:23;;;;;;;6.73;4.50;;;7.50;99.90;;;9.32;66.33;96943.75;5031062;28;20072;-54
2023/12/14 05:04:51;;;;;;;7.77;5.27;;;7.60;99.90;;;9.32;66.46;96941.91;5031016;28;20416;-52
2023/12/14 05:07:19;;;;;;;6.80;4.43;;;7.60;99.90;;;9.30;66.53;96943.09;5029363;28;20046;-52
2023/12/14 05:09:46;;;;;;;7.80;4.47;;;7.60;99.90;;;9.28;66.84;96953.88;5029696;28;20678;-53
2023/12/14 05:12:14;;;;;;;7.70;5.40;;;7.50;99.90;;;9.28;66.74;96961.84;5029544;28;20591;-54
2023/12/14 05:14:41;;;;;;;9.67;5.87;;;7.50;99.90;;;9.26;66.53;96961.19;5031057;28;20037;-53
2023/12/14 05:17:09;;;;;;;9.30;5.93;;;7.50;99.90;;;9.22;67.03;96960.69;5030713;28;20049;-54
2023/12/14 05:19:37;;;;;;;7.93;4.80;;;7.50;99.90;;;9.23;66.97;96973.00;5031249;28;20487;-53
2023/12/14 05:22:04;;;;;;;9.17;5.47;;;7.50;99.90;;;9.22;66.86;96973.16;5030693;28;20064;-51
2023/12/14 05:24:32;;;;;;;13.80;6.80;;;7.40;99.90;;;9.23;66.91;96975.66;5029442;28;20060;-54
2023/12/14 05:26:59;;;;;;;8.70;5.87;;;7.50;99.90;;;9.26;66.69;96980.59;5030290;28;20052;-51
2023/12/14 05:29:27;;;;;;;11.73;5.97;;;7.50;99.90;;;9.25;66.87;96988.78;5030735;28;20061;-54
2023/12/14 05:31:55;;;;;;;9.40;6.57;;;7.50;99.90;;;9.21;67.16;96996.25;5030770;28;20049;-51
2023/12/14 05:34:22;;;;;;;9.73;5.70;;;7.40;99.90;;;9.21;67.17;97006.88;5030614;28;20068;-53
2023/12/14 05:36:50;;;;;;;9.13;6.10;;;7.40;99.90;;;9.16;67.27;97011.00;5030465;28;20045;-54
2023/12/14 05:39:17;;;;;;;9.03;6.20;;;7.30;99.90;;;9.18;67.25;97014.34;5029763;28;20049;-53
2023/12/14 05:41:45;;;;;;;8.33;5.87;;;7.30;99.90;;;9.18;67.11;97023.13;5029567;28;20057;-51
2023/12/14 05:44:13;;;;;;;8.43;6.27;;;7.30;99.90;;;9.15;67.16;97023.47;5029850;28;20049;-50
2023/12/14 05:46:41;;;;;;;8.83;5.73;;;7.40;99.90;;;9.16;67.49;97026.94;5022311;28;20045;-53
2023/12/14 05:49:08;;;;;;;11.50;5.87;;;7.30;99.90;;;9.15;67.58;97031.44;5029140;28;20417;-53
2023/12/14 05:51:37;;;;;;;9.57;5.77;;;7.30;99.90;;;9.20;67.33;97031.75;5030541;28;20053;-50
2023/12/14 05:54:05;;;;;;;10.27;5.70;;;7.40;99.90;;;9.22;67.83;97023.63;5029654;28;20501;-53
2023/12/14 05:56:33;;;;;;;11.67;6.70;;;7.50;99.90;;;9.23;67.61;97028.78;5030203;28;20092;-55
2023/12/14 05:59:02;;;;;;;10.00;6.43;;;7.50;99.90;;;9.26;67.23;97030.25;5030730;28;20038;-53
2023/12/14 06:01:31;;;;;;;11.30;6.20;;;7.60;99.90;;;9.27;67.16;97040.72;5030234;28;20045;-50
2023/12/14 06:03:58;;;;;;;10.03;6.20;;;7.50;99.90;;;9.26;67.32;97044.34;5030581;28;20481;-53
2023/12/14 06:06:26;;;;;;;10.17;6.50;;;7.50;99.90;;;9.19;67.54;97055.81;5030282;28;20052;-53
2023/12/14 06:08:54;;;;;;;9.70;6.03;;;7.40;99.90;;;9.15;67.60;97051.84;5032956;28;20044;-49
2023/12/14 06:11:22;;;;;;;10.50;6.80;;;7.40;99.90;;;9.13;67.48;97052.03;5029917;28;20272;-54
2023/12/14 06:13:50;;;;;;;14.20;7.17;;;7.30;99.90;;;9.14;67.58;97051.00;5030767;28;20489;-55
2023/12/14 06:16:17;;;;;;;9.93;6.73;;;7.40;99.90;;;9.17;67.66;97063.97;5030391;28;20054;-54
2023/12/14 06:18:45;;;;;;;12.00;7.73;;;7.50;99.90;;;9.17;67.63;97061.31;5030408;28;20041;-53
2023/12/14 06:21:13;;;;;;;10.63;6.60;;;7.50;99.90;;;9.17;67.73;97065.78;5034129;28;20064;-52
2023/12/14 06:23:41;;;;;;;11.73;8.37;;;7.40;99.90;;;9.13;67.41;97075.94;5033900;28;20045;-54
2023/12/14 06:26:08;;;;;;;10.93;6.17;;;7.40;99.90;;;9.15;67.83;97083.69;5033754;28;20493;-53
2023/12/14 06:28:36;;;;;;;11.23;6.27;;;7.40;99.90;;;9.10;67.64;97084.22;5033903;28;20060;-53
2023/12/14 06:31:04;;;;;;;11.73;7.17;;;7.30;99.90;;;9.11;67.81;97090.34;5032406;28;20421;-54
2023/12/14 06:33:31;;;;;;;12.00;7.10;;;7.40;99.90;;;9.09;67.83;97095.81;5033374;28;20052;-54
2023/12/14 06:36:04;;;;;;;10.20;6.60;;;7.30;99.90;;;9.13;67.74;97094.50;5034096;28;20060;-51
2023/12/14 06:38:32;;;;;;;11.90;7.33;;;7.40;99.90;;;9.14;67.98;97098.81;5033942;28;20054;-53
2023/12/14 06:41:02;;;;;;;10.83;7.10;;;7.40;99.90;;;9.11;68.02;97103.63;5033745;28;20045;-53
2023/12/14 06:43:30;;;;;;;11.93;7.57;;;7.40;99.90;;;9.09;67.67;97111.75;5032641;28;20046;-53
2023/12/14 06:45:57;;;;;;;13.37;8.73;;;7.30;99.90;;;9.06;67.87;97117.41;5032516;28;20049;-52
2023/12/14 06:48:25;;;;;;;17.30;10.27;;;7.30;99.90;;;9.10;67.91;97128.53;5033747;28;20053;-54
2023/12/14 06:50:54;;;;;;;14.07;8.47;;;7.30;99.90;;;9.13;68.05;97123.72;5032351;28;20033;-54
2023/12/14 06:53:22;;;;;;;16.07;8.37;;;7.40;99.90;;;9.05;68.51;97137.81;5033483;28;20048;-53
2023/12/14 06:55:50;;;;;;;14.60;8.73;;;7.30;99.90;;;9.06;68.08;97134.16;5033070;28;20037;-53
2023/12/14 06:58:18;;;;;;;12.47;8.30;;;7.30;99.90;;;9.12;68.46;97145.94;5033223;28;20389;-53
2023/12/14 07:00:45;;;;;;;13.40;8.83;;;7.40;99.90;;;9.16;68.28;97147.28;5033239;28;20436;-51
2023/12/14 07:03:13;;;;;;;14.10;8.67;;;7.40;99.90;;;9.17;68.29;97154.25;5033452;28;20045;-53
2023/12/14 07:05:42;;;;;;;13.53;8.67;;;7.40;99.90;;;9.18;68.29;97157.75;5031981;28;20080;-54
2023/12/14 07:08:10;;;;;;;28.53;20.37;;;7.40;99.90;;;9.20;68.26;97163.72;5033086;28;20068;-49
2023/12/14 07:10:38;;;;;;;31.73;21.30;;;7.40;99.90;;;9.22;68.20;97170.53;5033007;28;20548;-51
2023/12/14 07:13:05;;;;;;;45.13;28.87;;;7.40;99.90;;;9.26;68.05;97176.34;5032162;28;20045;-49
2023/12/14 07:15:33;;;;;;;25.10;14.23;;;7.50;99.90;;;9.30;68.14;97187.47;5032995;28;20085;-49
2023/12/14 07:18:01;;;;;;;21.13;11.37;;;7.60;99.90;;;9.35;68.20;97183.31;5032779;28;20519;-53
2023/12/14 07:20:29;;;;;;;14.47;9.93;;;7.60;99.90;;;9.38;67.85;97190.97;5032754;28;20042;-51
2023/12/14 07:22:56;;;;;;;20.97;10.77;;;7.60;99.90;;;9.38;67.68;97193.63;5033020;28;20519;-51
2023/12/14 07:25:24;;;;;;;13.83;9.00;;;7.70;99.90;;;9.37;68.02;97199.94;5032595;28;20049;-51
2023/12/14 07:27:52;;;;;;;16.20;10.13;;;7.60;99.90;;;9.40;68.14;97201.41;5024847;28;20037;-51
2023/12/14 07:30:20;;;;;;;17.70;10.30;;;7.60;99.90;;;9.41;68.19;97205.75;5032300;28;20042;-54
2023/12/14 07:32:47;;;;;;;16.23;9.77;;;7.70;99.90;;;9.44;68.10;97218.69;5032189;28;20050;-53
2023/12/14 07:35:15;;;;;;;18.70;10.60;;;7.70;99.90;;;9.48;67.97;97224.50;5032776;28;20053;-52
2023/12/14 07:37:43;;;;;;;16.33;10.97;;;7.80;99.90;;;9.48;67.90;97227.16;5032570;28;20049;-51
2023/12/14 07:40:11;;;;;;;19.03;10.73;;;7.70;99.90;;;9.46;67.66;97224.69;5028894;28;20056;-52
2023/12/14 07:42:38;;;;;;;16.30;10.67;;;7.70;99.90;;;9.42;67.60;97229.50;5032399;28;20377;-52
2023/12/14 07:45:09;;;;;;;15.23;10.53;;;7.70;99.90;;;9.38;67.85;97240.59;5031490;28;20501;-52
2023/12/14 07:47:36;;;;;;;17.10;10.80;;;7.60;99.90;;;9.25;67.94;97231.28;5030963;28;20053;-52
2023/12/14 07:50:05;;;;;;;19.60;12.00;;;7.50;99.90;;;9.29;68.24;97230.97;5032552;28;20045;-52
2023/12/14 07:52:34;;;;;;;17.73;10.23;;;7.60;99.90;;;9.17;68.21;97235.75;5031460;28;20057;-51
2023/12/14 07:55:03;;;;;;;16.83;9.63;;;7.50;99.90;;;9.24;68.41;97232.28;5032343;28;20038;-51
2023/12/14 07:57:31;;;;;;;17.63;10.53;;;7.50;99.90;;;9.29;68.38;97239.78;5032065;28;20041;-51
2023/12/14 08:00:00;;;;;;;16.80;10.57;;;7.60;99.90;;;9.32;68.42;97246.56;5032463;28;20038;-52
2023/12/14 08:02:27;;;;;;;15.07;9.17;;;7.60;99.90;;;9.32;68.02;97257.19;5032073;28;20041;-54
2023/12/14 08:04:55;;;;;;;15.63;9.67;;;7.60;99.90;;;9.23;68.29;97254.53;5024178;28;20041;-53
2023/12/14 08:07:23;;;;;;;16.70;9.87;;;7.60;99.90;;;9.21;68.47;97269.81;5027095;28;20045;-52
2023/12/14 08:09:50;;;;;;;18.50;10.80;;;7.60;99.90;;;9.22;68.17;97271.44;5031292;28;20041;-53
2023/12/14 08:12:18;;;;;;;16.33;10.47;;;7.60;99.90;;;9.18;68.84;97279.91;5031858;28;20053;-52
2023/12/14 08:14:45;;;;;;;19.67;10.13;;;7.60;99.90;;;9.20;68.73;97281.41;5032047;28;20046;-49
2023/12/14 08:17:13;;;;;;;16.27;10.57;;;7.60;99.90;;;9.32;68.79;97281.13;5031866;28;20056;-52
2023/12/14 08:19:40;;;;;;;15.93;10.70;;;7.70;99.90;;;9.35;68.97;97281.63;5031814;28;20060;-52
2023/12/14 08:22:11;;;;;;;16.33;10.87;;;7.80;99.90;;;9.32;69.05;97292.56;5031844;28;20516;-52
2023/12/14 08:24:40;;;;;;;22.83;11.07;;;7.70;99.90;;;9.39;68.96;97292.75;5031709;28;20394;-51
2023/12/14 08:27:07;;;;;;;22.83;11.17;;;7.80;99.90;;;9.45;68.80;97302.75;5030370;28;20045;-53
2023/12/14 08:29:35;;;;;;;18.97;11.03;;;7.80;99.90;;;9.46;69.14;97302.56;5031578;28;20082;-53
2023/12/14 08:32:03;;;;;;;14.90;9.87;;;7.90;99.90;;;9.50;68.72;97312.88;5031794;28;20049;-53
2023/12/14 08:34:31;;;;;;;17.67;10.40;;;7.90;99.90;;;9.50;68.61;97321.69;5031758;28;20041;-51
2023/12/14 08:37:01;;;;;;;19.57;10.63;;;7.90;99.90;;;9.45;69.10;97324.81;5023484;28;20041;-54
2023/12/14 08:39:29;;;;;;;19.43;12.10;;;7.80;99.90;;;9.48;69.07;97323.69;5031984;28;20049;-54
2023/12/14 08:41:56;;;;;;;18.30;11.23;;;7.90;99.90;;;9.50;69.08;97334.13;5031327;28;20045;-52
2023/12/14 08:44:24;;;;;;;19.20;10.90;;;7.90;99.90;;;9.55;68.67;97335.31;5031143;28;20053;-54
2023/12/14 08:46:52;;;;;;;14.87;9.87;;;8.00;99.90;;;9.58;69.02;97344.81;5031173;28;20045;-53
2023/12/14 08:49:19;;;;;;;26.80;12.13;;;8.00;99.90;;;9.60;68.76;97338.31;5031388;28;20050;-53
2023/12/14 08:51:47;;;;;;;32.07;13.07;;;8.00;99.90;;;9.64;68.51;97352.94;5031345;28;20049;-52
2023/12/14 08:54:14;;;;;;;23.40;11.40;;;8.00;99.90;;;9.71;68.43;97362.91;5031191;28;20046;-54
2023/12/14 08:56:42;;;;;;;23.17;11.03;;;8.10;99.90;;;9.65;68.41;97367.06;5029901;28;20048;-53
2023/12/14 08:59:10;;;;;;;19.23;11.17;;;8.00;99.90;;;9.60;68.33;97372.03;5031121;28;20289;-51
2023/12/14 09:01:38;;;;;;;18.97;11.47;;;8.00;99.90;;;9.58;68.46;97379.34;5030686;28;20045;-54
2023/12/14 09:04:06;;;;;;;18.90;10.87;;;7.90;99.90;;;9.63;68.46;97387.66;5030059;28;20513;-52
2023/12/14 09:06:34;;;;;;;19.30;11.13;;;8.00;99.90;;;9.63;68.40;97393.81;5031029;28;20057;-51
2023/12/14 09:09:02;;;;;;;18.17;10.83;;;8.00;99.90;;;9.61;68.50;97403.75;5031114;28;20048;-52
2023/12/14 09:11:30;;;;;;;18.30;10.13;;;8.00;99.90;;;9.62;68.56;97407.28;5031162;28;20045;-53
2023/12/14 09:13:57;;;;;;;18.00;11.40;;;7.90;99.90;;;9.64;68.64;97413.25;5030755;28;20042;-54
2023/12/14 09:16:25;;;;;;;15.80;10.83;;;8.00;99.90;;;9.61;68.74;97413.56;5030681;28;20045;-53
2023/12/14 09:18:53;;;;;;;17.17;9.33;;;8.00;99.90;;;9.60;68.81;97417.22;5031168;28;20056;-54
2023/12/14 09:21:20;;;;;;;19.40;10.37;;;8.10;99.90;;;9.59;68.83;97424.34;5030506;28;20057;-54
2023/12/14 09:23:59;;;;;;;24.47;11.47;;;8.00;99.90;;;9.66;68.60;97420.06;5028907;28;20041;-56
2023/12/14 09:26:27;;;;;;;19.33;10.57;;;8.10;99.90;;;9.51;69.23;97429.63;5030913;28;20050;-56
2023/12/14 09:28:55;;;;;;;16.30;10.60;;;8.00;99.90;;;9.52;69.37;97433.13;5030711;28;20045;-57
2023/12/14 09:31:22;;;;;;;18.90;11.00;;;7.90;99.90;;;9.51;69.43;97434.13;5031282;28;20046;-56
2023/12/14 09:33:50;;;;;;;16.33;10.33;;;7.90;99.90;;;9.51;69.12;97432.28;5031654;28;20052;-55
2023/12/14 09:36:18;;;;;;;18.33;10.10;;;7.90;99.90;;;9.53;69.23;97446.25;5030846;28;20056;-56
2023/12/14 09:38:46;;;;;;;15.03;10.03;;;7.90;99.90;;;9.57;69.05;97439.63;5030817;28;20060;-56
2023/12/14 09:41:14;;;;;;;14.97;10.03;;;7.90;99.90;;;9.62;69.27;97439.97;5031109;28;20053;-56
2023/12/14 09:43:43;;;;;;;14.30;8.77;;;8.00;99.90;;;9.63;68.79;97444.31;5028619;28;20053;-56
2023/12/14 09:46:12;;;;;;;12.00;7.80;;;8.00;99.90;;;9.52;68.99;97447.25;5029260;28;20050;-55
2023/12/14 09:48:40;;;;;;;15.83;8.27;;;7.90;99.90;;;9.59;69.12;97445.59;5029281;28;20072;-57
2023/12/14 09:51:09;;;;;;;11.33;7.83;;;7.90;99.90;;;9.56;69.13;97450.44;5030536;28;20429;-56
2023/12/14 09:53:36;;;;;;;14.33;8.43;;;7.90;99.90;;;9.65;68.87;97446.78;5029716;28;20072;-56
2023/12/14 09:56:05;;;;;;;16.50;8.00;;;8.00;99.90;;;9.65;69.18;97460.09;5034257;28;20049;-56
2023/12/14 09:58:33;;;;;;;13.60;7.87;;;8.00;99.90;;;9.51;69.18;97458.88;5034483;28;20041;-57
2023/12/14 10:01:04;;;;;;;14.53;8.13;;;8.00;99.90;;;9.58;69.14;97467.06;5034387;28;20050;-56
2023/12/14 10:03:32;;;;;;;13.27;7.97;;;8.00;99.90;;;9.52;69.37;97473.84;5034503;28;20048;-56
2023/12/14 10:06:01;;;;;;;11.10;7.23;;;8.00;99.90;;;9.45;69.46;97473.63;5034687;28;20505;-55
2023/12/14 10:08:30;;;;;;;14.43;8.40;;;8.00;99.90;;;9.46;69.64;97477.97;5034360;28;20049;-57
2023/12/14 10:10:57;;;;;;;14.17;8.53;;;7.90;99.90;;;9.46;69.87;97485.09;5034285;28;20520;-58
2023/12/14 10:13:38;;;;;;;14.00;9.50;;;7.90;99.90;;;9.52;69.77;97495.09;5034340;28;20049;-57
2023/12/14 10:16:07;;;;;;;17.70;9.17;;;7.90;99.90;;;9.52;69.76;97495.09;5026082;28;20052;-57
2023/12/14 10:18:35;;;;;;;15.23;9.73;;;7.90;99.90;;;9.49;69.86;97503.38;5033758;28;20042;-57
2023/12/14 10:21:06;;;;;;;11.87;7.83;;;7.90;99.90;;;9.48;69.76;97499.06;5034160;28;20145;-58
2023/12/14 10:23:35;;;;;;;13.37;8.30;;;7.90;99.90;;;9.37;69.73;97510.78;5033053;28;20046;-56
2023/12/14 10:26:04;;;;;;;12.33;8.90;;;7.90;99.90;;;9.41;69.73;97501.50;5033865;28;20064;-56
2023/12/14 10:28:32;;;;;;;11.60;7.33;;;7.90;99.90;;;9.58;69.93;97507.75;5032919;28;20041;-57
2023/12/14 10:31:00;;;;;;;12.10;7.03;;;8.00;99.90;;;9.48;69.35;97511.50;5033535;28;20054;-57